createdAt,value
2022-12-18T03:45:32.245Z,101510.47
2022-12-18T03:49:40.873Z,101503.47
2022-12-18T03:53:50.906Z,101506.81
2022-12-18T03:57:57.724Z,101513.53
2022-12-18T04:02:09.257Z,101516.13
2022-12-18T04:06:14.439Z,101516.81
2022-12-18T04:10:19.293Z,101519.75
2022-12-18T04:14:23.312Z,101521.09
2022-12-18T04:18:31.877Z,101530.16
2022-12-18T04:22:37.929Z,101524.72
2022-12-18T04:26:40.970Z,101531.31
2022-12-18T04:30:51.998Z,101529.50
2022-12-18T04:34:58.118Z,101554.28
2022-12-18T04:39:01.516Z,101556.72
2022-12-18T04:43:05.299Z,101565.22
2022-12-18T04:47:08.749Z,101562.56
2022-12-18T04:51:13.162Z,101566.78
2022-12-18T04:55:16.269Z,101563.19
2022-12-18T04:59:19.321Z,101568.09
2022-12-18T05:03:22.443Z,101575.81
2022-12-18T05:07:27.085Z,101585.50
2022-12-18T05:11:30.258Z,101593.25
2022-12-18T05:15:34.482Z,101609.34
2022-12-18T05:19:40.090Z,101598.53
2022-12-18T05:23:44.648Z,101608.84
2022-12-18T05:27:48.113Z,101607.03
2022-12-18T05:31:51.159Z,101593.88
2022-12-18T05:35:55.245Z,101603.97
2022-12-18T05:39:59.736Z,101615.69
2022-12-18T05:44:02.785Z,101617.34
2022-12-18T05:48:06.801Z,101617.75
2022-12-18T05:52:09.937Z,101607.03
2022-12-18T05:56:16.681Z,101611.16
2022-12-18T06:00:19.974Z,101617.09
2022-12-18T06:04:23.029Z,101620.19
2022-12-18T06:08:26.021Z,101630.22
2022-12-18T06:12:30.494Z,101642.34
2022-12-18T06:16:34.424Z,101639.00
2022-12-18T06:20:40.561Z,101645.69
2022-12-18T06:24:43.591Z,101640.53
2022-12-18T06:28:48.155Z,101656.00
2022-12-18T06:32:56.327Z,101668.41
2022-12-18T06:37:00.373Z,101663.53
2022-12-18T06:41:07.827Z,101670.72
2022-12-18T06:45:15.547Z,101671.63
2022-12-18T06:49:18.567Z,101676.91
2022-12-18T06:53:21.575Z,101682.88
2022-12-18T06:57:24.596Z,101687.09
2022-12-18T07:01:29.262Z,101698.34
2022-12-18T07:05:32.538Z,101694.69
2022-12-18T07:09:35.926Z,101709.28
2022-12-18T07:13:39.449Z,101720.47
2022-12-18T07:17:44.058Z,101723.84
2022-12-18T07:21:47.082Z,101717.91
2022-12-18T07:25:50.170Z,101735.06
2022-12-18T07:29:53.780Z,101735.94
2022-12-18T07:33:58.401Z,101739.59
2022-12-18T07:38:04.368Z,101737.03
2022-12-18T07:42:24.746Z,101747.44
2022-12-18T07:46:28.013Z,101754.41
2022-12-18T07:50:32.669Z,101764.06
2022-12-18T07:54:35.725Z,101764.34
2022-12-18T07:58:39.250Z,101767.06
2022-12-18T08:02:42.661Z,101776.50
2022-12-18T08:06:48.303Z,101784.34
2022-12-18T08:10:51.630Z,101789.53
2022-12-18T08:14:54.701Z,101789.13
2022-12-18T08:18:58.135Z,101789.13
2022-12-18T08:23:02.577Z,101790.97
2022-12-18T08:27:28.435Z,101789.53
2022-12-18T08:31:31.300Z,101793.41
2022-12-18T08:35:42.485Z,101795.06
2022-12-18T08:39:49.566Z,101797.91
2022-12-18T08:44:10.707Z,101796.63
2022-12-18T08:48:16.658Z,101803.22
2022-12-18T08:52:23.685Z,101798.72
2022-12-18T08:56:28.180Z,101806.84
2022-12-18T09:00:33.881Z,101810.72
2022-12-18T09:04:36.917Z,101806.47
2022-12-18T09:08:40.208Z,101806.13
2022-12-18T09:12:45.017Z,101813.75
2022-12-18T09:16:48.198Z,101818.53
2022-12-18T09:20:52.965Z,101819.53
2022-12-18T09:26:00.974Z,101823.28
2022-12-18T09:30:06.556Z,101816.84
2022-12-18T09:34:09.746Z,101823.31
2022-12-18T09:38:15.248Z,101824.47
2022-12-18T09:42:23.838Z,101817.13
2022-12-18T09:46:32.735Z,101813.25
2022-12-18T09:50:40.992Z,101811.31
2022-12-18T09:54:45.933Z,101810.16
2022-12-18T09:58:55.431Z,101798.53
2022-12-18T10:03:03.785Z,101800.34
2022-12-18T10:07:15.881Z,101802.13
2022-12-18T10:11:31.150Z,101798.38
2022-12-18T10:15:42.421Z,101794.66
2022-12-18T10:19:52.689Z,101794.91
2022-12-18T10:24:05.117Z,101790.09
2022-12-18T10:28:14.039Z,101791.53
2022-12-18T10:32:20.413Z,101786.34
2022-12-18T10:36:25.474Z,101780.28
2022-12-18T10:40:28.753Z,101783.41
2022-12-18T10:44:31.730Z,101786.19
2022-12-18T10:48:38.465Z,101781.97
2022-12-18T10:52:45.246Z,101767.97
2022-12-18T10:56:51.435Z,101778.28
2022-12-18T11:01:09.863Z,101763.28
2022-12-18T11:05:27.700Z,101775.69
2022-12-18T11:09:34.307Z,101769.91
2022-12-18T11:13:37.249Z,101772.09
2022-12-18T11:17:41.307Z,101763.56
2022-12-18T11:21:44.631Z,101754.00
2022-12-18T11:25:56.879Z,101757.59
2022-12-18T11:30:10.865Z,101768.28
2022-12-18T11:34:34.285Z,101769.41
2022-12-18T11:38:39.671Z,101773.13
2022-12-18T11:42:50.329Z,101757.47
2022-12-18T11:46:58.118Z,101763.69
2022-12-18T11:51:04.014Z,101761.09
2022-12-18T11:55:16.541Z,101754.47
2022-12-18T11:59:31.387Z,101743.47
2022-12-18T12:03:53.511Z,101752.81
2022-12-18T12:08:07.221Z,101749.97
2022-12-18T12:12:28.433Z,101753.06
2022-12-18T12:16:39.732Z,101745.63
2022-12-18T12:20:51.897Z,101758.41
2022-12-18T12:25:07.726Z,101751.94
2022-12-18T12:29:31.171Z,101743.91
2022-12-18T12:33:45.223Z,101741.59
2022-12-18T12:38:01.991Z,101743.53
2022-12-18T12:42:24.854Z,101732.94
2022-12-18T12:46:28.697Z,101721.44
2022-12-18T12:50:37.583Z,101719.28
2022-12-18T12:54:41.448Z,101721.75
2022-12-18T12:58:53.805Z,101730.41
2022-12-18T13:03:03.899Z,101728.69
2022-12-18T13:07:18.294Z,101735.44
2022-12-18T13:12:00.574Z,101738.81
2022-12-18T13:16:08.638Z,101737.91
2022-12-18T13:20:15.443Z,101745.13
2022-12-18T13:24:27.248Z,101757.53
2022-12-18T13:28:54.959Z,101757.78
2022-12-18T13:33:51.031Z,101761.25
2022-12-18T13:38:23.908Z,101750.31
2022-12-18T13:43:02.152Z,101759.63
2022-12-18T13:47:06.877Z,101758.06
2022-12-18T13:51:13.101Z,101775.91
2022-12-18T13:55:21.095Z,101772.31
2022-12-18T13:59:26.421Z,101769.34
2022-12-18T14:03:32.191Z,101770.91
2022-12-18T14:07:41.961Z,101773.63
2022-12-18T14:11:51.555Z,101770.22
2022-12-18T14:15:55.811Z,101772.06
2022-12-18T14:19:59.754Z,101783.41
2022-12-18T14:24:08.154Z,101787.31
2022-12-18T14:28:16.554Z,101795.06
2022-12-18T14:32:21.135Z,101792.47
2022-12-18T14:36:26.564Z,101802.44
2022-12-18T14:40:29.678Z,101797.75
2022-12-18T14:44:44.122Z,101804.06
2022-12-18T14:48:53.588Z,101798.66
2022-12-18T14:52:56.567Z,101811.44
2022-12-18T14:57:03.362Z,101810.56
2022-12-18T15:01:08.881Z,101805.13
2022-12-18T15:05:20.499Z,101817.81
2022-12-18T15:09:25.449Z,101820.16
2022-12-18T15:13:29.320Z,101818.59
2022-12-18T15:17:33.813Z,101814.44
2022-12-18T15:21:36.785Z,101813.69
2022-12-18T15:25:39.833Z,101813.41
2022-12-18T15:29:43.467Z,101806.44
2022-12-18T15:34:04.121Z,101808.78
2022-12-18T15:38:08.896Z,101803.50
2022-12-18T15:42:30.106Z,101808.91
2022-12-18T15:46:33.131Z,101790.44
2022-12-18T15:50:37.580Z,101788.63
2022-12-18T15:54:57.829Z,101806.97
2022-12-18T15:59:01.662Z,101818.06
2022-12-18T16:03:05.773Z,101814.09
2022-12-18T16:07:16.055Z,101818.06
2022-12-18T16:11:39.829Z,101825.03
2022-12-18T16:15:42.796Z,101846.75
2022-12-18T16:19:45.993Z,101838.50
2022-12-18T16:23:50.619Z,101826.19
2022-12-18T16:27:56.021Z,101820.91
2022-12-18T16:32:00.378Z,101814.84
2022-12-18T16:36:03.420Z,101830.97
2022-12-18T16:40:15.719Z,101824.28
2022-12-18T16:44:21.946Z,101817.81
2022-12-18T16:48:25.641Z,101816.38
2022-12-18T16:52:30.358Z,101809.63
2022-12-18T16:56:38.208Z,101811.28
2022-12-18T17:00:45.668Z,101805.34
2022-12-18T17:04:48.968Z,101801.31
2022-12-18T17:08:57.012Z,101819.97
2022-12-18T17:13:08.485Z,101821.53
2022-12-18T17:17:22.828Z,101807.16
2022-12-18T17:21:27.937Z,101804.72
2022-12-18T17:25:31.879Z,101802.75
2022-12-18T17:29:41.144Z,101801.19
2022-12-18T17:33:51.887Z,101792.41
2022-12-18T17:37:56.652Z,101799.16
2022-12-18T17:42:02.886Z,101804.31
2022-12-18T17:46:09.847Z,101809.75
2022-12-18T17:50:14.279Z,101807.94
2022-12-18T17:54:27.124Z,101812.47
2022-12-18T17:58:32.366Z,101800.31
2022-12-18T18:02:38.052Z,101806.13
2022-12-18T18:06:41.870Z,101789.97
2022-12-18T18:10:45.162Z,101793.94
2022-12-18T18:14:48.555Z,101802.22
2022-12-18T18:18:52.984Z,101795.13
2022-12-18T18:22:56.383Z,101801.88
2022-12-18T18:27:00.589Z,101804.59
2022-12-18T18:31:06.114Z,101803.66
2022-12-18T18:35:19.496Z,101801.06
2022-12-18T18:39:34.345Z,101788.13
2022-12-18T18:43:37.742Z,101793.84
2022-12-18T18:47:41.811Z,101806.38
2022-12-18T18:51:46.152Z,101809.22
2022-12-18T18:56:03.971Z,101809.34
2022-12-18T19:00:13.981Z,101812.81
2022-12-18T19:04:17.608Z,101805.97
2022-12-18T19:08:22.011Z,101807.13
2022-12-18T19:12:42.584Z,101805.31
2022-12-18T19:16:45.966Z,101796.78
2022-12-18T19:20:57.334Z,101806.06
2022-12-18T19:25:01.983Z,101809.47
2022-12-18T19:29:07.569Z,101803.50
2022-12-18T19:33:41.736Z,101791.84
2022-12-18T19:37:35.696Z,101787.59
2022-12-18T19:41:40.922Z,101800.41
2022-12-18T19:45:44.211Z,101800.53
2022-12-18T19:49:47.168Z,101800.41
2022-12-18T19:53:54.965Z,101804.00
2022-12-18T19:58:02.571Z,101799.72
2022-12-18T20:02:06.010Z,101800.22
2022-12-18T20:06:11.725Z,101796.97
2022-12-18T20:10:15.580Z,101801.38
2022-12-18T20:14:23.408Z,101795.53
2022-12-18T20:18:26.780Z,101789.44
2022-12-18T20:22:29.919Z,101799.16
2022-12-18T20:26:33.196Z,101783.50
2022-12-18T20:30:38.342Z,101780.63
2022-12-18T20:34:42.610Z,101786.56
2022-12-18T20:38:46.309Z,101790.53
2022-12-18T20:42:50.164Z,101776.72
2022-12-18T20:47:00.280Z,101774.38
2022-12-18T20:51:09.171Z,101781.34
2022-12-18T20:55:15.004Z,101777.97
2022-12-18T20:59:19.892Z,101761.78
2022-12-18T21:03:24.618Z,101759.19
2022-12-18T21:07:28.188Z,101749.72
2022-12-18T21:11:50.289Z,101758.41
2022-12-18T21:15:54.841Z,101762.03
2022-12-18T21:19:59.634Z,101756.72
2022-12-18T21:24:03.107Z,101758.53
2022-12-18T21:28:07.080Z,101758.66
2022-12-18T21:32:11.852Z,101751.28
2022-12-18T21:36:16.190Z,101748.38
2022-12-18T21:40:19.450Z,101739.47
2022-12-18T21:44:24.069Z,101744.50
2022-12-18T21:48:27.275Z,101734.56
2022-12-18T21:52:32.980Z,101735.25
2022-12-18T21:56:48.629Z,101745.78
2022-12-18T22:00:52.672Z,101745.94
2022-12-18T22:04:56.279Z,101742.97
2022-12-18T22:09:01.706Z,101740.06
2022-12-18T22:13:05.369Z,101729.88
2022-12-18T22:17:09.922Z,101735.81
2022-12-18T22:21:28.799Z,101738.16
2022-12-18T22:25:34.255Z,101734.28
2022-12-18T22:29:56.122Z,101736.28
2022-12-18T22:33:59.510Z,101717.81
2022-12-18T22:38:02.855Z,101708.50
2022-12-18T22:42:07.391Z,101710.06
2022-12-18T22:46:16.161Z,101694.09
2022-12-18T22:50:19.400Z,101695.88
2022-12-18T22:54:23.226Z,101679.34
2022-12-18T22:58:27.494Z,101666.19
2022-12-18T23:02:30.535Z,101667.75
2022-12-18T23:06:33.702Z,101672.28
2022-12-18T23:10:40.083Z,101666.44
2022-12-18T23:14:44.796Z,101682.44
2022-12-18T23:18:47.932Z,101670.81
2022-12-18T23:22:51.033Z,101663.75
2022-12-18T23:26:54.623Z,101666.06
2022-12-18T23:31:06.606Z,101651.56
2022-12-18T23:35:10.146Z,101660.59
2022-12-18T23:39:28.685Z,101658.38
2022-12-18T23:43:32.941Z,101662.09
2022-12-18T23:47:37.214Z,101656.63
2022-12-18T23:51:40.296Z,101641.34
2022-12-18T23:55:45.433Z,101627.84
2022-12-18T23:59:49.321Z,101632.25
